In Rescue
 
Open Full Screen Window  High Contrast Mode
Wind Gusting 17 knots
14
April 20, 2024 10:07 AM EDT
Weather Information
Wind Direction
  280 °
Wind Speed
  14 kt (16 mph)
Wind Gust
  17 kt (20 mph)
Altimeter
30.00 in
Visibility
10 SM
Temperature
04° C
39° F
Dewpoint
-02° C
28° F
Humidity
65%
Sky Condition
Overcast @ 8,000 ft
Broken @ 5,000 ft
Scattered @ 2,700 ft
VFR

METAR KPZQ 201407Z AUTO 28014G17KT 10SM SCT027 BKN050 OVC080 04/M02 A3000 RMK AO2 T00361017

FAA Disclaimer: The data displayed is for advisory purposes only and is not to be used for flight planning or operations.